Adriatic Sea — WDB5553 — position and weather

sailwx.info

Track history (hours):
 
Tides and Currents Weather Stations Pressure Air Temp Water Temp Dewpoint Dewpoint Depression Visibility Wind Speed Wind Dir Waves Ship Positions

Adriatic Sea

Owner: Kirby Offshore Marine, LLC, Seattle, WA. More information available from US FCC via Universal Licensing System and Coast Guard Vessel Documentation Center.

Last reported at 2016-May-04 11:05 UTC. Time now 2016-May-04 11:43 UTC.
Position N 47°17' W 122°23'.

Length 42 m.

Type: Tug. MMSI: 366910890.

Date/timePositionNaut miles runAvg speedWind from/ knotsBaromVisibWave heightAir tempDewpointWater temp
2016-May-04 11:05N 47°17' W 122°23'0 0.0
2016-May-04 10:17N 47°17' W 122°23'0 0.0
2016-May-04 09:08N 47°17' W 122°23'0 0.0
2016-May-04 04:16N 47°17' W 122°23'0 0.0
2016-May-04 03:24N 47°17' W 122°23'0 0.1
2016-May-03 20:28N 47°17' W 122°24'4 4.9
2016-May-03 19:33N 47°21' W 122°25'7 7.4
2016-May-03 18:33N 47°28' W 122°25'8 7.7
2016-May-03 17:33N 47°36' W 122°23'2 1.9
2016-May-03 16:33N 47°35' W 122°21'0 0.0
2016-May-03 15:33N 47°35' W 122°21'0 0.0
2016-May-03 14:33N 47°35' W 122°21'0 0.0
2016-May-03 13:33N 47°35' W 122°21'0 0.0
2016-May-03 12:33N 47°35' W 122°21'0 0.0
2016-May-03 11:33N 47°35' W 122°21'0 0.0
2016-May-03 10:33N 47°35' W 122°21'0 0.0
2016-May-03 09:33N 47°35' W 122°21'0 0.0
2016-May-03 08:34N 47°35' W 122°21'0 0.0
2016-May-03 07:34N 47°35' W 122°21'0 0.0
2016-May-03 06:33N 47°35' W 122°21'0 0.0
2016-May-03 05:33N 47°35' W 122°21'0 0.0
2016-May-03 04:33N 47°35' W 122°21'0 0.0
2016-May-03 03:33N 47°35' W 122°21'0 0.0
2016-May-03 02:33N 47°35' W 122°21'0 0.0
2016-May-03 01:34N 47°35' W 122°21'0 0.0
2016-May-03 00:33N 47°35' W 122°21'3 2.5
2016-May-02 23:33N 47°37' W 122°24'4 4.0
2016-May-02 22:34N 47°39' W 122°29'3 2.7
2016-May-02 21:33N 47°42' W 122°28'4 3.8
2016-May-02 20:33N 47°46' W 122°27'5 4.9
2016-May-02 19:33N 47°50' W 122°28'5 5.0
2016-May-02 18:34N 47°55' W 122°30'6 5.3
2016-May-02 17:30N 47°59' W 122°36'7 5.3
2016-May-02 16:07N 48°06' W 122°40'5 5.5
2016-May-02 15:17N 48°09' W 122°45'4 5.1
2016-May-02 14:31N 48°12' W 122°49'5 4.8
2016-May-02 13:31N 48°17' W 122°48'5 4.7
2016-May-02 12:33N 48°21' W 122°46'5 5.1
2016-May-02 11:33N 48°26' W 122°45'6 5.8
2016-May-02 10:33N 48°32' W 122°45'5 5.4
2016-May-02 09:34N 48°37' W 122°45'4 4.4
2016-May-02 08:33N 48°42' W 122°44'4 4.2
2016-May-02 07:33N 48°46' W 122°46'4 3.9
2016-May-02 06:33N 48°50' W 122°43'0 0.0
2016-May-02 05:26N 48°50' W 122°43'0 0.0
2016-May-02 04:26N 48°50' W 122°43'0 0.0
2016-May-02 03:32N 48°50' W 122°43'0 0.0
2016-May-02 02:27N 48°50' W 122°43'0 0.0
2016-May-02 01:09N 48°50' W 122°43'0 0.0
2016-May-02 00:20N 48°50' W 122°43'0 0.0
2016-May-01 23:26N 48°50' W 122°43'0 0.0
2016-May-01 22:32N 48°50' W 122°43'0 0.0
2016-May-01 21:32N 48°50' W 122°43'0 0.0
2016-May-01 19:20N 48°50' W 122°43'0 0.0
2016-May-01 18:32N 48°50' W 122°43'0 0.0
2016-May-01 17:26N 48°50' W 122°43'0 0.0
2016-May-01 16:31N 48°50' W 122°43'0 0.0
2016-May-01 15:25N 48°50' W 122°43'0 0.0
2016-May-01 14:31N 48°50' W 122°43'0 0.5
2016-May-01 13:33N 48°49' W 122°43'7 6.9
2016-May-01 12:33N 48°42' W 122°43'7 7.1
2016-May-01 11:33N 48°38' W 122°34'6 5.8
2016-May-01 10:32N 48°44' W 122°32'0 0.0
2016-May-01 09:32N 48°44' W 122°32'0 0.0
2016-May-01 08:29N 48°44' W 122°32'0 0.0
2016-May-01 07:29N 48°44' W 122°32'0 0.0
2016-May-01 06:32N 48°44' W 122°32'0 0.0
2016-May-01 05:32N 48°44' W 122°32'0 0.0
2016-May-01 04:32N 48°44' W 122°32'0 0.0
2016-May-01 03:26N 48°44' W 122°32'0 0.0
2016-May-01 02:29N 48°44' W 122°32'0 0.1
2016-May-01 01:32N 48°44' W 122°32'0 0.0
2016-May-01 00:29N 48°44' W 122°32'0 0.0
2016-Apr-30 23:32N 48°44' W 122°32'0 0.0
2016-Apr-30 22:32N 48°44' W 122°32'0 0.0
2016-Apr-30 21:32N 48°44' W 122°32'0 0.0
2016-Apr-30 20:32N 48°44' W 122°32'0 0.1
2016-Apr-30 19:32N 48°44' W 122°32'0 0.0
2016-Apr-30 18:32N 48°44' W 122°32'0 0.1
2016-Apr-30 17:26N 48°44' W 122°32'0 0.0
2016-Apr-30 16:32N 48°44' W 122°32'0 0.1
2016-Apr-30 15:32N 48°44' W 122°32'0 0.0
2016-Apr-30 14:33N 48°44' W 122°32'0 0.0
2016-Apr-30 13:33N 48°44' W 122°32'0 0.0
2016-Apr-30 12:33N 48°44' W 122°32'0 0.0
2016-Apr-30 11:33N 48°44' W 122°32'0 0.0
2016-Apr-30 10:33N 48°44' W 122°32'0 0.1
2016-Apr-30 09:33N 48°44' W 122°32'0 0.1
2016-Apr-30 08:33N 48°44' W 122°32'0 0.1
2016-Apr-30 07:34N 48°44' W 122°32'0 0.0
2016-Apr-30 06:33N 48°44' W 122°32'0 0.0
2016-Apr-30 05:33N 48°44' W 122°32'0 0.1
2016-Apr-30 04:33N 48°44' W 122°32'0 0.1
2016-Apr-30 03:33N 48°44' W 122°32'4 4.1
2016-Apr-30 02:33N 48°40' W 122°33'8 7.9
2016-Apr-30 01:33N 48°32' W 122°34'2 1.8
2016-Apr-30 00:33N 48°31' W 122°36'0 0.0
2016-Apr-29 23:33N 48°31' W 122°36'0 0.0
2016-Apr-29 22:33N 48°31' W 122°36'0 0.0
2016-Apr-29 21:33N 48°31' W 122°36'0 0.0
2016-Apr-29 20:33N 48°31' W 122°36'0 0.0
2016-Apr-29 19:33N 48°31' W 122°36'0 0.0
2016-Apr-29 18:33N 48°31' W 122°36'0 0.0
2016-Apr-29 17:31N 48°31' W 122°36'0 0.0
2016-Apr-29 16:31N 48°31' W 122°36'0 0.0
2016-Apr-29 15:31N 48°31' W 122°36'0 0.0
2016-Apr-29 14:31N 48°31' W 122°36'0 0.0
2016-Apr-29 13:31N 48°31' W 122°36'0 0.0
2016-Apr-29 12:19N 48°31' W 122°36'0 0.0
2016-Apr-29 11:31N 48°31' W 122°36'0 0.0
2016-Apr-29 10:31N 48°31' W 122°36'0 0.0
2016-Apr-29 09:31N 48°31' W 122°36'0 0.0
2016-Apr-29 08:31N 48°31' W 122°36'0 0.0
2016-Apr-29 07:31N 48°31' W 122°36'0 0.0
2016-Apr-29 06:31N 48°31' W 122°36'0 0.0
2016-Apr-29 05:31N 48°31' W 122°36'0 0.0
2016-Apr-29 04:24N 48°31' W 122°36'0 0.0
2016-Apr-29 03:30N 48°31' W 122°36'0 0.0
2016-Apr-29 02:30N 48°31' W 122°36'0 0.0
2016-Apr-29 01:24N 48°31' W 122°36'0 0.0
2016-Apr-29 00:30N 48°31' W 122°36'0 0.0
2016-Apr-28 23:33N 48°31' W 122°36'0 0.0
2016-Apr-28 22:33N 48°31' W 122°36'0 0.0
2016-Apr-28 21:33N 48°31' W 122°36'0 0.0
2016-Apr-28 20:33N 48°31' W 122°36'0 0.0
2016-Apr-28 19:33N 48°31' W 122°36'0 0.0
2016-Apr-28 18:34N 48°31' W 122°36'0 0.0
2016-Apr-28 17:33N 48°31' W 122°36'0 0.0
2016-Apr-28 16:33N 48°31' W 122°36'0 0.0
2016-Apr-28 15:33N 48°31' W 122°36'0 0.0
2016-Apr-28 14:33N 48°31' W 122°36'0 0.0
2016-Apr-28 13:33N 48°31' W 122°36'0 0.0
2016-Apr-28 12:33N 48°31' W 122°36'0 0.0
2016-Apr-28 11:34N 48°31' W 122°36'0 0.0
2016-Apr-28 10:33N 48°31' W 122°36'0 0.0
2016-Apr-28 09:33N 48°31' W 122°36'0 0.0
2016-Apr-28 08:33N 48°31' W 122°36'0 0.0
2016-Apr-28 07:34N 48°31' W 122°36'0 0.0
2016-Apr-28 06:34N 48°31' W 122°36'0 0.0
2016-Apr-28 05:33N 48°31' W 122°36'0 0.0
2016-Apr-28 04:33N 48°31' W 122°36'0 0.0
2016-Apr-28 03:33N 48°31' W 122°36'0 0.0
2016-Apr-28 02:33N 48°31' W 122°36'0 0.0
2016-Apr-28 01:33N 48°31' W 122°36'0 0.0
2016-Apr-28 00:33N 48°31' W 122°36'0 0.0
2016-Apr-27 23:33N 48°31' W 122°36'0 0.0
2016-Apr-27 22:33N 48°31' W 122°36'0 0.0
2016-Apr-27 21:33N 48°31' W 122°36'0 0.0
2016-Apr-27 20:33N 48°31' W 122°36'0 0.0
2016-Apr-27 19:33N 48°31' W 122°36'0 0.0
2016-Apr-27 18:33N 48°31' W 122°36'0 0.0
2016-Apr-27 17:33N 48°31' W 122°36'0 0.0
2016-Apr-27 16:33N 48°31' W 122°36'0 0.0
2016-Apr-27 15:33N 48°31' W 122°36'0 0.0
2016-Apr-27 14:33N 48°31' W 122°36'0 0.0
2016-Apr-27 13:33N 48°31' W 122°36'0 0.0
2016-Apr-27 12:33N 48°31' W 122°36'0 0.0
2016-Apr-27 11:33N 48°31' W 122°36'0 0.0
2016-Apr-27 10:33N 48°31' W 122°36'0 0.0
2016-Apr-27 09:33N 48°31' W 122°36'0 0.0
2016-Apr-27 08:33N 48°31' W 122°36'0 0.0
2016-Apr-27 07:33N 48°31' W 122°36'0 0.0
2016-Apr-27 06:33N 48°31' W 122°36'0 0.0
2016-Apr-27 05:33N 48°31' W 122°36'0 0.0
2016-Apr-27 04:33N 48°31' W 122°36'0 0.0
2016-Apr-27 03:34N 48°31' W 122°36'0 0.0
2016-Apr-27 02:33N 48°31' W 122°36'0 0.0
2016-Apr-27 01:34N 48°31' W 122°36'0 0.0
2016-Apr-27 00:33N 48°31' W 122°36'0 0.0
2016-Apr-26 23:33N 48°31' W 122°36'0 0.0
2016-Apr-26 22:33N 48°31' W 122°36'0 0.0
2016-Apr-26 21:33N 48°31' W 122°36'0 0.0
2016-Apr-26 20:33N 48°31' W 122°36'0 0.0
2016-Apr-26 19:33N 48°31' W 122°36'0 0.0
2016-Apr-26 18:33N 48°31' W 122°36'0 0.0
2016-Apr-26 17:33N 48°31' W 122°36'0 0.0
2016-Apr-26 16:33N 48°31' W 122°36'0 0.0
2016-Apr-26 15:33N 48°31' W 122°36'0 0.0
2016-Apr-26 14:34N 48°31' W 122°36'0 0.0
2016-Apr-26 13:33N 48°31' W 122°36'0 0.0
2016-Apr-26 12:33N 48°31' W 122°36'0 0.0
2016-Apr-26 11:33N 48°31' W 122°36'0 0.0
2016-Apr-26 10:33N 48°31' W 122°36'0 0.0
2016-Apr-26 09:34N 48°31' W 122°36'0 0.0
2016-Apr-26 08:33N 48°31' W 122°36'0 0.0
2016-Apr-26 07:33N 48°31' W 122°36'0 0.0
2016-Apr-26 06:33N 48°31' W 122°36'0 0.0
2016-Apr-26 05:34N 48°31' W 122°36'0 0.0
2016-Apr-26 04:33N 48°31' W 122°36'0 0.0
2016-Apr-26 03:33N 48°31' W 122°36'0 0.0
2016-Apr-26 02:33N 48°31' W 122°36'0 0.0
2016-Apr-26 01:33N 48°31' W 122°36'0 0.0
2016-Apr-26 00:33N 48°31' W 122°36'0 0.0
2016-Apr-25 23:33N 48°31' W 122°36'0 0.0
2016-Apr-25 22:33N 48°31' W 122°36'0 0.0
2016-Apr-25 21:33N 48°31' W 122°36'0 0.0
2016-Apr-25 20:33N 48°31' W 122°36'0 0.0
2016-Apr-25 19:33N 48°31' W 122°36'0 0.0
2016-Apr-25 18:33N 48°31' W 122°36'0 0.0
2016-Apr-25 17:33N 48°31' W 122°36'0 0.0
2016-Apr-25 16:33N 48°31' W 122°36'0 0.0
2016-Apr-25 15:33N 48°31' W 122°36'0 0.0
2016-Apr-25 14:33N 48°31' W 122°36'0 0.0
2016-Apr-25 13:33N 48°31' W 122°36'0 0.0
2016-Apr-25 12:33N 48°31' W 122°36'0 0.0
2016-Apr-25 11:33N 48°31' W 122°36'0 0.0
2016-Apr-25 10:33N 48°31' W 122°36'0 0.0
2016-Apr-25 09:33N 48°31' W 122°36'0 0.0
2016-Apr-25 08:33N 48°31' W 122°36'0 0.0
2016-Apr-25 07:33N 48°31' W 122°36'0 0.0
2016-Apr-25 06:33N 48°31' W 122°36'0 0.0
2016-Apr-25 05:33N 48°31' W 122°36'0 0.0
2016-Apr-25 04:33N 48°31' W 122°36'0 0.0
2016-Apr-25 03:33N 48°31' W 122°36'0 0.0
2016-Apr-25 02:33N 48°31' W 122°36'0 0.0
2016-Apr-25 01:33N 48°31' W 122°36'0 0.3
2016-Apr-25 00:33N 48°31' W 122°37'0 0.0
2016-Apr-24 23:33N 48°31' W 122°37'0 0.0
2016-Apr-24 22:34N 48°31' W 122°37'0 0.0
2016-Apr-24 21:33N 48°31' W 122°37'0 0.0
2016-Apr-24 20:33N 48°31' W 122°37'0 0.0
2016-Apr-24 19:33N 48°31' W 122°37'0 0.0
2016-Apr-24 18:33N 48°31' W 122°37'0 0.0
2016-Apr-24 17:33N 48°31' W 122°37'0 0.0
2016-Apr-24 16:33N 48°31' W 122°37'0 0.0
2016-Apr-24 15:33N 48°31' W 122°37'0 0.0
2016-Apr-24 14:34N 48°31' W 122°37'0 0.0
2016-Apr-24 13:33N 48°31' W 122°37'0 0.0
2016-Apr-24 12:33N 48°31' W 122°37'0 0.0
2016-Apr-24 11:34N 48°31' W 122°37'  
Track history (hours):
 
Tides and Currents Weather Stations Pressure Air Temp Water Temp Dewpoint Dewpoint Depression Visibility Wind Speed Wind Dir Waves Ship Positions

Adriatic Sea

Owner: Kirby Offshore Marine, LLC, Seattle, WA. More information available from US FCC via Universal Licensing System and Coast Guard Vessel Documentation Center.

Last reported at 2016-May-04 11:05 UTC. Time now 2016-May-04 11:43 UTC.
Position N 47°17' W 122°23'.

Length 42 m.

Type: Tug. MMSI: 366910890.

Date/timePositionNaut miles runAvg speedWind from/ knotsBaromVisibWave heightAir tempDewpointWater temp
2016-May-04 11:05N 47°17' W 122°23'0 0.0
2016-May-04 10:17N 47°17' W 122°23'0 0.0
2016-May-04 09:08N 47°17' W 122°23'0 0.0
2016-May-04 04:16N 47°17' W 122°23'0 0.0
2016-May-04 03:24N 47°17' W 122°23'0 0.1
2016-May-03 20:28N 47°17' W 122°24'4 4.9
2016-May-03 19:33N 47°21' W 122°25'7 7.4
2016-May-03 18:33N 47°28' W 122°25'8 7.7
2016-May-03 17:33N 47°36' W 122°23'2 1.9
2016-May-03 16:33N 47°35' W 122°21'0 0.0
2016-May-03 15:33N 47°35' W 122°21'0 0.0
2016-May-03 14:33N 47°35' W 122°21'0 0.0
2016-May-03 13:33N 47°35' W 122°21'0 0.0
2016-May-03 12:33N 47°35' W 122°21'0 0.0
2016-May-03 11:33N 47°35' W 122°21'0 0.0
2016-May-03 10:33N 47°35' W 122°21'0 0.0
2016-May-03 09:33N 47°35' W 122°21'0 0.0
2016-May-03 08:34N 47°35' W 122°21'0 0.0
2016-May-03 07:34N 47°35' W 122°21'0 0.0
2016-May-03 06:33N 47°35' W 122°21'0 0.0
2016-May-03 05:33N 47°35' W 122°21'0 0.0
2016-May-03 04:33N 47°35' W 122°21'0 0.0
2016-May-03 03:33N 47°35' W 122°21'0 0.0
2016-May-03 02:33N 47°35' W 122°21'0 0.0
2016-May-03 01:34N 47°35' W 122°21'0 0.0
2016-May-03 00:33N 47°35' W 122°21'3 2.5
2016-May-02 23:33N 47°37' W 122°24'4 4.0
2016-May-02 22:34N 47°39' W 122°29'3 2.7
2016-May-02 21:33N 47°42' W 122°28'4 3.8
2016-May-02 20:33N 47°46' W 122°27'5 4.9
2016-May-02 19:33N 47°50' W 122°28'5 5.0
2016-May-02 18:34N 47°55' W 122°30'6 5.3
2016-May-02 17:30N 47°59' W 122°36'7 5.3
2016-May-02 16:07N 48°06' W 122°40'5 5.5
2016-May-02 15:17N 48°09' W 122°45'4 5.1
2016-May-02 14:31N 48°12' W 122°49'5 4.8
2016-May-02 13:31N 48°17' W 122°48'5 4.7
2016-May-02 12:33N 48°21' W 122°46'5 5.1
2016-May-02 11:33N 48°26' W 122°45'6 5.8
2016-May-02 10:33N 48°32' W 122°45'5 5.4
2016-May-02 09:34N 48°37' W 122°45'4 4.4
2016-May-02 08:33N 48°42' W 122°44'4 4.2
2016-May-02 07:33N 48°46' W 122°46'4 3.9
2016-May-02 06:33N 48°50' W 122°43'0 0.0
2016-May-02 05:26N 48°50' W 122°43'0 0.0
2016-May-02 04:26N 48°50' W 122°43'0 0.0
2016-May-02 03:32N 48°50' W 122°43'0 0.0
2016-May-02 02:27N 48°50' W 122°43'0 0.0
2016-May-02 01:09N 48°50' W 122°43'0 0.0
2016-May-02 00:20N 48°50' W 122°43'0 0.0
2016-May-01 23:26N 48°50' W 122°43'0 0.0
2016-May-01 22:32N 48°50' W 122°43'0 0.0
2016-May-01 21:32N 48°50' W 122°43'0 0.0
2016-May-01 19:20N 48°50' W 122°43'0 0.0
2016-May-01 18:32N 48°50' W 122°43'0 0.0
2016-May-01 17:26N 48°50' W 122°43'0 0.0
2016-May-01 16:31N 48°50' W 122°43'0 0.0
2016-May-01 15:25N 48°50' W 122°43'0 0.0
2016-May-01 14:31N 48°50' W 122°43'0 0.5
2016-May-01 13:33N 48°49' W 122°43'7 6.9
2016-May-01 12:33N 48°42' W 122°43'7 7.1
2016-May-01 11:33N 48°38' W 122°34'6 5.8
2016-May-01 10:32N 48°44' W 122°32'0 0.0
2016-May-01 09:32N 48°44' W 122°32'0 0.0
2016-May-01 08:29N 48°44' W 122°32'0 0.0
2016-May-01 07:29N 48°44' W 122°32'0 0.0
2016-May-01 06:32N 48°44' W 122°32'0 0.0
2016-May-01 05:32N 48°44' W 122°32'0 0.0
2016-May-01 04:32N 48°44' W 122°32'0 0.0
2016-May-01 03:26N 48°44' W 122°32'0 0.0
2016-May-01 02:29N 48°44' W 122°32'0 0.1
2016-May-01 01:32N 48°44' W 122°32'0 0.0
2016-May-01 00:29N 48°44' W 122°32'0 0.0
2016-Apr-30 23:32N 48°44' W 122°32'0 0.0
2016-Apr-30 22:32N 48°44' W 122°32'0 0.0
2016-Apr-30 21:32N 48°44' W 122°32'0 0.0
2016-Apr-30 20:32N 48°44' W 122°32'0 0.1
2016-Apr-30 19:32N 48°44' W 122°32'0 0.0
2016-Apr-30 18:32N 48°44' W 122°32'0 0.1
2016-Apr-30 17:26N 48°44' W 122°32'0 0.0
2016-Apr-30 16:32N 48°44' W 122°32'0 0.1
2016-Apr-30 15:32N 48°44' W 122°32'0 0.0
2016-Apr-30 14:33N 48°44' W 122°32'0 0.0
2016-Apr-30 13:33N 48°44' W 122°32'0 0.0
2016-Apr-30 12:33N 48°44' W 122°32'0 0.0
2016-Apr-30 11:33N 48°44' W 122°32'0 0.0
2016-Apr-30 10:33N 48°44' W 122°32'0 0.1
2016-Apr-30 09:33N 48°44' W 122°32'0 0.1
2016-Apr-30 08:33N 48°44' W 122°32'0 0.1
2016-Apr-30 07:34N 48°44' W 122°32'0 0.0
2016-Apr-30 06:33N 48°44' W 122°32'0 0.0
2016-Apr-30 05:33N 48°44' W 122°32'0 0.1
2016-Apr-30 04:33N 48°44' W 122°32'0 0.1
2016-Apr-30 03:33N 48°44' W 122°32'4 4.1
2016-Apr-30 02:33N 48°40' W 122°33'8 7.9
2016-Apr-30 01:33N 48°32' W 122°34'2 1.8
2016-Apr-30 00:33N 48°31' W 122°36'0 0.0
2016-Apr-29 23:33N 48°31' W 122°36'0 0.0
2016-Apr-29 22:33N 48°31' W 122°36'0 0.0
2016-Apr-29 21:33N 48°31' W 122°36'0 0.0
2016-Apr-29 20:33N 48°31' W 122°36'0 0.0
2016-Apr-29 19:33N 48°31' W 122°36'0 0.0
2016-Apr-29 18:33N 48°31' W 122°36'0 0.0
2016-Apr-29 17:31N 48°31' W 122°36'0 0.0
2016-Apr-29 16:31N 48°31' W 122°36'0 0.0
2016-Apr-29 15:31N 48°31' W 122°36'0 0.0
2016-Apr-29 14:31N 48°31' W 122°36'0 0.0
2016-Apr-29 13:31N 48°31' W 122°36'0 0.0
2016-Apr-29 12:19N 48°31' W 122°36'0 0.0
2016-Apr-29 11:31N 48°31' W 122°36'0 0.0
2016-Apr-29 10:31N 48°31' W 122°36'0 0.0
2016-Apr-29 09:31N 48°31' W 122°36'0 0.0
2016-Apr-29 08:31N 48°31' W 122°36'0 0.0
2016-Apr-29 07:31N 48°31' W 122°36'0 0.0
2016-Apr-29 06:31N 48°31' W 122°36'0 0.0
2016-Apr-29 05:31N 48°31' W 122°36'0 0.0
2016-Apr-29 04:24N 48°31' W 122°36'0 0.0
2016-Apr-29 03:30N 48°31' W 122°36'0 0.0
2016-Apr-29 02:30N 48°31' W 122°36'0 0.0
2016-Apr-29 01:24N 48°31' W 122°36'0 0.0
2016-Apr-29 00:30N 48°31' W 122°36'0 0.0
2016-Apr-28 23:33N 48°31' W 122°36'0 0.0
2016-Apr-28 22:33N 48°31' W 122°36'0 0.0
2016-Apr-28 21:33N 48°31' W 122°36'0 0.0
2016-Apr-28 20:33N 48°31' W 122°36'0 0.0
2016-Apr-28 19:33N 48°31' W 122°36'0 0.0
2016-Apr-28 18:34N 48°31' W 122°36'0 0.0
2016-Apr-28 17:33N 48°31' W 122°36'0 0.0
2016-Apr-28 16:33N 48°31' W 122°36'0 0.0
2016-Apr-28 15:33N 48°31' W 122°36'0 0.0
2016-Apr-28 14:33N 48°31' W 122°36'0 0.0
2016-Apr-28 13:33N 48°31' W 122°36'0 0.0
2016-Apr-28 12:33N 48°31' W 122°36'0 0.0
2016-Apr-28 11:34N 48°31' W 122°36'0 0.0
2016-Apr-28 10:33N 48°31' W 122°36'0 0.0
2016-Apr-28 09:33N 48°31' W 122°36'0 0.0
2016-Apr-28 08:33N 48°31' W 122°36'0 0.0
2016-Apr-28 07:34N 48°31' W 122°36'0 0.0
2016-Apr-28 06:34N 48°31' W 122°36'0 0.0
2016-Apr-28 05:33N 48°31' W 122°36'0 0.0
2016-Apr-28 04:33N 48°31' W 122°36'0 0.0
2016-Apr-28 03:33N 48°31' W 122°36'0 0.0
2016-Apr-28 02:33N 48°31' W 122°36'0 0.0
2016-Apr-28 01:33N 48°31' W 122°36'0 0.0
2016-Apr-28 00:33N 48°31' W 122°36'0 0.0
2016-Apr-27 23:33N 48°31' W 122°36'0 0.0
2016-Apr-27 22:33N 48°31' W 122°36'0 0.0
2016-Apr-27 21:33N 48°31' W 122°36'0 0.0
2016-Apr-27 20:33N 48°31' W 122°36'0 0.0
2016-Apr-27 19:33N 48°31' W 122°36'0 0.0
2016-Apr-27 18:33N 48°31' W 122°36'0 0.0
2016-Apr-27 17:33N 48°31' W 122°36'0 0.0
2016-Apr-27 16:33N 48°31' W 122°36'0 0.0
2016-Apr-27 15:33N 48°31' W 122°36'0 0.0
2016-Apr-27 14:33N 48°31' W 122°36'0 0.0
2016-Apr-27 13:33N 48°31' W 122°36'0 0.0
2016-Apr-27 12:33N 48°31' W 122°36'0 0.0
2016-Apr-27 11:33N 48°31' W 122°36'0 0.0
2016-Apr-27 10:33N 48°31' W 122°36'0 0.0
2016-Apr-27 09:33N 48°31' W 122°36'0 0.0
2016-Apr-27 08:33N 48°31' W 122°36'0 0.0
2016-Apr-27 07:33N 48°31' W 122°36'0 0.0
2016-Apr-27 06:33N 48°31' W 122°36'0 0.0
2016-Apr-27 05:33N 48°31' W 122°36'0 0.0
2016-Apr-27 04:33N 48°31' W 122°36'0 0.0
2016-Apr-27 03:34N 48°31' W 122°36'0 0.0
2016-Apr-27 02:33N 48°31' W 122°36'0 0.0
2016-Apr-27 01:34N 48°31' W 122°36'0 0.0
2016-Apr-27 00:33N 48°31' W 122°36'0 0.0
2016-Apr-26 23:33N 48°31' W 122°36'0 0.0
2016-Apr-26 22:33N 48°31' W 122°36'0 0.0
2016-Apr-26 21:33N 48°31' W 122°36'0 0.0
2016-Apr-26 20:33N 48°31' W 122°36'0 0.0
2016-Apr-26 19:33N 48°31' W 122°36'0 0.0
2016-Apr-26 18:33N 48°31' W 122°36'0 0.0
2016-Apr-26 17:33N 48°31' W 122°36'0 0.0
2016-Apr-26 16:33N 48°31' W 122°36'0 0.0
2016-Apr-26 15:33N 48°31' W 122°36'0 0.0
2016-Apr-26 14:34N 48°31' W 122°36'0 0.0
2016-Apr-26 13:33N 48°31' W 122°36'0 0.0
2016-Apr-26 12:33N 48°31' W 122°36'0 0.0
2016-Apr-26 11:33N 48°31' W 122°36'0 0.0
2016-Apr-26 10:33N 48°31' W 122°36'0 0.0
2016-Apr-26 09:34N 48°31' W 122°36'0 0.0
2016-Apr-26 08:33N 48°31' W 122°36'0 0.0
2016-Apr-26 07:33N 48°31' W 122°36'0 0.0
2016-Apr-26 06:33N 48°31' W 122°36'0 0.0
2016-Apr-26 05:34N 48°31' W 122°36'0 0.0
2016-Apr-26 04:33N 48°31' W 122°36'0 0.0
2016-Apr-26 03:33N 48°31' W 122°36'0 0.0
2016-Apr-26 02:33N 48°31' W 122°36'0 0.0
2016-Apr-26 01:33N 48°31' W 122°36'0 0.0
2016-Apr-26 00:33N 48°31' W 122°36'0 0.0
2016-Apr-25 23:33N 48°31' W 122°36'0 0.0
2016-Apr-25 22:33N 48°31' W 122°36'0 0.0
2016-Apr-25 21:33N 48°31' W 122°36'0 0.0
2016-Apr-25 20:33N 48°31' W 122°36'0 0.0
2016-Apr-25 19:33N 48°31' W 122°36'0 0.0
2016-Apr-25 18:33N 48°31' W 122°36'0 0.0
2016-Apr-25 17:33N 48°31' W 122°36'0 0.0
2016-Apr-25 16:33N 48°31' W 122°36'0 0.0
2016-Apr-25 15:33N 48°31' W 122°36'0 0.0
2016-Apr-25 14:33N 48°31' W 122°36'0 0.0
2016-Apr-25 13:33N 48°31' W 122°36'0 0.0
2016-Apr-25 12:33N 48°31' W 122°36'0 0.0
2016-Apr-25 11:33N 48°31' W 122°36'0 0.0
2016-Apr-25 10:33N 48°31' W 122°36'0 0.0
2016-Apr-25 09:33N 48°31' W 122°36'0 0.0
2016-Apr-25 08:33N 48°31' W 122°36'0 0.0
2016-Apr-25 07:33N 48°31' W 122°36'0 0.0
2016-Apr-25 06:33N 48°31' W 122°36'0 0.0
2016-Apr-25 05:33N 48°31' W 122°36'0 0.0
2016-Apr-25 04:33N 48°31' W 122°36'0 0.0
2016-Apr-25 03:33N 48°31' W 122°36'0 0.0
2016-Apr-25 02:33N 48°31' W 122°36'0 0.0
2016-Apr-25 01:33N 48°31' W 122°36'0 0.3
2016-Apr-25 00:33N 48°31' W 122°37'0 0.0
2016-Apr-24 23:33N 48°31' W 122°37'0 0.0
2016-Apr-24 22:34N 48°31' W 122°37'0 0.0
2016-Apr-24 21:33N 48°31' W 122°37'0 0.0
2016-Apr-24 20:33N 48°31' W 122°37'0 0.0
2016-Apr-24 19:33N 48°31' W 122°37'0 0.0
2016-Apr-24 18:33N 48°31' W 122°37'0 0.0
2016-Apr-24 17:33N 48°31' W 122°37'0 0.0
2016-Apr-24 16:33N 48°31' W 122°37'0 0.0
2016-Apr-24 15:33N 48°31' W 122°37'0 0.0
2016-Apr-24 14:34N 48°31' W 122°37'0 0.0
2016-Apr-24 13:33N 48°31' W 122°37'0 0.0
2016-Apr-24 12:33N 48°31' W 122°37'0 0.0
2016-Apr-24 11:34N 48°31' W 122°37'  

Dump ship's entire track history